createdAt,value
2023-01-18T00:01:02.202Z,7.87
2023-01-18T00:03:52.963Z,7.97
2023-01-18T00:06:41.702Z,8.43
2023-01-18T00:09:30.158Z,7.67
2023-01-18T00:12:18.606Z,7.67
2023-01-18T00:15:08.486Z,8.00
2023-01-18T00:17:57.004Z,7.30
2023-01-18T00:20:46.803Z,7.90
2023-01-18T00:23:35.620Z,7.20
2023-01-18T00:26:24.123Z,7.60
2023-01-18T00:29:12.548Z,7.20
2023-01-18T00:32:01.009Z,7.80
2023-01-18T00:34:50.597Z,7.07
2023-01-18T00:37:40.968Z,7.00
2023-01-18T00:40:30.239Z,8.23
2023-01-18T00:43:35.993Z,6.67
2023-01-18T00:46:27.208Z,7.40
2023-01-18T00:49:15.629Z,6.43
2023-01-18T00:52:04.385Z,8.40
2023-01-18T00:54:54.206Z,8.97
2023-01-18T00:57:42.883Z,9.67
2023-01-18T01:00:32.555Z,9.27
2023-01-18T01:03:21.875Z,8.17
2023-01-18T01:06:32.763Z,9.00
2023-01-18T01:09:23.250Z,8.20
2023-01-18T01:12:30.648Z,8.40
2023-01-18T01:15:36.729Z,8.90
2023-01-18T01:18:43.025Z,9.60
2023-01-18T01:21:49.185Z,9.97
2023-01-18T01:24:55.233Z,9.27
2023-01-18T01:27:45.048Z,9.63
2023-01-18T01:30:33.518Z,10.67
2023-01-18T01:33:22.032Z,10.83
2023-01-18T01:36:13.321Z,10.83
2023-01-18T01:39:01.807Z,12.30
2023-01-18T01:41:50.432Z,11.20
2023-01-18T01:44:47.674Z,10.20
2023-01-18T01:47:38.880Z,11.67
2023-01-18T01:50:30.031Z,12.70
2023-01-18T01:53:18.492Z,11.00
2023-01-18T01:56:07.588Z,10.80
2023-01-18T01:58:58.071Z,12.13
2023-01-18T02:01:48.397Z,9.93
2023-01-18T02:04:37.141Z,11.53
2023-01-18T02:07:28.745Z,11.60
2023-01-18T02:10:17.543Z,11.13
2023-01-18T02:13:06.535Z,10.90
2023-01-18T02:16:01.226Z,11.13
2023-01-18T02:18:56.326Z,9.70
2023-01-18T02:21:45.700Z,10.30
2023-01-18T02:24:58.943Z,9.40
2023-01-18T02:27:52.530Z,9.23
2023-01-18T02:30:44.467Z,9.17
2023-01-18T02:33:36.876Z,9.23
2023-01-18T02:36:28.618Z,8.53
2023-01-18T02:39:31.822Z,9.47
2023-01-18T02:42:38.935Z,8.80
2023-01-18T02:45:49.622Z,8.63
2023-01-18T02:48:41.613Z,8.63
2023-01-18T02:51:30.110Z,9.23
2023-01-18T02:54:24.351Z,9.60
2023-01-18T02:57:14.595Z,9.20
2023-01-18T03:00:04.796Z,8.53
2023-01-18T03:02:55.592Z,9.13
2023-01-18T03:05:47.304Z,9.53
2023-01-18T03:08:39.830Z,8.33
2023-01-18T03:11:35.358Z,8.17
2023-01-18T03:14:31.690Z,8.00
2023-01-18T03:17:23.479Z,8.13
2023-01-18T03:20:14.672Z,9.23
2023-01-18T03:23:24.804Z,9.57
2023-01-18T03:26:16.380Z,9.63
2023-01-18T03:29:23.365Z,8.37
2023-01-18T03:32:31.995Z,10.00
2023-01-18T03:35:26.702Z,8.90
2023-01-18T03:38:17.231Z,8.67
2023-01-18T03:41:06.584Z,8.80
2023-01-18T03:43:57.777Z,8.60
2023-01-18T03:46:46.320Z,8.83
2023-01-18T03:49:35.529Z,9.17
2023-01-18T03:52:26.185Z,10.33
2023-01-18T03:55:20.476Z,11.27
2023-01-18T03:58:11.147Z,11.33
2023-01-18T04:01:00.001Z,11.20
2023-01-18T04:03:48.605Z,12.73
2023-01-18T04:06:37.353Z,12.77
2023-01-18T04:09:26.054Z,13.10
2023-01-18T04:12:15.820Z,14.13
2023-01-18T04:15:05.447Z,14.00
2023-01-18T04:17:55.868Z,14.00
2023-01-18T04:20:44.411Z,14.40
2023-01-18T04:23:32.873Z,14.00
2023-01-18T04:26:21.343Z,15.50
2023-01-18T04:29:11.133Z,14.77
2023-01-18T04:31:59.545Z,16.43
2023-01-18T04:34:48.008Z,15.10
2023-01-18T04:37:38.395Z,15.50
2023-01-18T04:40:26.843Z,18.17
2023-01-18T04:43:15.355Z,14.73
2023-01-18T04:46:05.438Z,15.10
2023-01-18T04:48:53.915Z,16.33
2023-01-18T04:51:43.137Z,16.40
2023-01-18T04:54:31.735Z,15.93
2023-01-18T04:57:20.334Z,17.87
2023-01-18T05:00:10.441Z,16.70
2023-01-18T05:03:00.630Z,16.10
2023-01-18T05:05:49.242Z,16.73
2023-01-18T05:08:40.860Z,17.53
2023-01-18T05:11:29.311Z,17.00
2023-01-18T05:14:17.916Z,17.20
2023-01-18T05:17:07.291Z,17.33
2023-01-18T05:19:57.321Z,17.03
2023-01-18T05:22:45.922Z,17.83
2023-01-18T05:25:34.355Z,17.43
2023-01-18T05:28:23.456Z,17.30
2023-01-18T05:31:12.021Z,18.10
2023-01-18T05:34:00.609Z,18.80
2023-01-18T05:36:50.452Z,17.00
2023-01-18T05:39:38.910Z,17.60
2023-01-18T05:42:27.361Z,16.80
2023-01-18T05:45:16.205Z,15.70
2023-01-18T05:48:04.962Z,17.20
2023-01-18T05:50:53.666Z,18.07
2023-01-18T05:53:43.529Z,16.60
2023-01-18T05:56:32.949Z,16.83
2023-01-18T05:59:21.419Z,20.50
2023-01-18T06:02:09.964Z,15.57
2023-01-18T06:04:58.475Z,18.67
2023-01-18T06:07:47.715Z,15.17
2023-01-18T06:10:37.519Z,14.80
2023-01-18T06:13:28.903Z,14.70
2023-01-18T06:16:17.416Z,14.63
2023-01-18T06:19:05.888Z,14.60
2023-01-18T06:21:54.401Z,14.07
2023-01-18T06:24:42.898Z,13.57
2023-01-18T06:27:32.728Z,14.07
2023-01-18T06:30:21.332Z,13.10
2023-01-18T06:33:09.855Z,14.60
2023-01-18T06:35:58.389Z,15.70
2023-01-18T06:38:46.877Z,13.23
2023-01-18T06:41:35.353Z,13.03
2023-01-18T06:44:25.563Z,12.97
2023-01-18T06:47:15.455Z,14.43
2023-01-18T06:50:04.128Z,12.17
2023-01-18T06:52:52.616Z,11.50
2023-01-18T06:55:41.069Z,13.63
2023-01-18T06:58:31.044Z,13.53
2023-01-18T07:01:21.050Z,11.70
2023-01-18T07:04:09.611Z,14.27
2023-01-18T07:06:58.140Z,14.00
2023-01-18T07:09:46.682Z,14.60
2023-01-18T07:12:35.662Z,14.73
2023-01-18T07:15:24.095Z,13.47
2023-01-18T07:18:13.842Z,14.43
2023-01-18T07:21:03.539Z,14.40
2023-01-18T07:23:52.408Z,14.63
2023-01-18T07:26:40.857Z,16.33
2023-01-18T07:29:29.382Z,16.43
2023-01-18T07:32:17.864Z,15.20
2023-01-18T07:35:08.490Z,13.93
2023-01-18T07:37:56.933Z,15.13
2023-01-18T07:40:46.654Z,14.03
2023-01-18T07:43:37.399Z,15.57
2023-01-18T07:46:26.308Z,14.70
2023-01-18T07:49:15.549Z,14.33
2023-01-18T07:52:05.861Z,13.70
2023-01-18T07:54:54.363Z,14.83
2023-01-18T07:57:43.432Z,13.80
2023-01-18T08:00:32.004Z,14.27
2023-01-18T08:03:20.903Z,15.00
2023-01-18T08:06:09.744Z,13.70
2023-01-18T08:08:59.616Z,13.10
2023-01-18T08:11:48.171Z,14.13
2023-01-18T08:14:36.834Z,12.53
2023-01-18T08:17:25.353Z,13.40
2023-01-18T08:20:15.432Z,13.03
2023-01-18T08:23:04.747Z,12.70
2023-01-18T08:25:55.436Z,12.17
2023-01-18T08:28:44.777Z,13.27
2023-01-18T08:31:33.384Z,14.60
2023-01-18T08:34:22.762Z,12.67
2023-01-18T08:37:11.987Z,14.53
2023-01-18T08:40:00.448Z,12.90
2023-01-18T08:42:50.771Z,12.43
2023-01-18T08:45:39.311Z,12.40
2023-01-18T08:48:27.805Z,13.03
2023-01-18T08:51:17.993Z,13.90
2023-01-18T08:54:06.555Z,15.03
2023-01-18T08:56:55.188Z,14.40
2023-01-18T08:59:44.994Z,15.20
2023-01-18T09:02:33.587Z,16.77
2023-01-18T09:05:22.157Z,16.20
2023-01-18T09:08:10.624Z,14.20
2023-01-18T09:11:02.272Z,13.60
2023-01-18T09:14:00.646Z,15.00
2023-01-18T09:16:51.117Z,16.47
2023-01-18T09:19:39.598Z,15.80
2023-01-18T09:22:28.146Z,13.00
2023-01-18T09:25:18.021Z,14.00
2023-01-18T09:28:06.794Z,14.53
2023-01-18T09:30:55.791Z,17.17
2023-01-18T09:33:52.771Z,15.67
2023-01-18T09:36:42.297Z,14.60
2023-01-18T09:39:35.297Z,14.50
2023-01-18T09:42:33.230Z,13.47
2023-01-18T09:45:29.459Z,13.23
2023-01-18T09:48:31.161Z,13.17
2023-01-18T09:51:23.465Z,13.50
2023-01-18T09:54:18.427Z,13.60
2023-01-18T09:57:11.311Z,14.70
2023-01-18T10:00:00.973Z,15.13
2023-01-18T10:02:53.187Z,14.07
2023-01-18T10:05:45.376Z,14.20
2023-01-18T10:08:37.385Z,12.77
2023-01-18T10:11:33.000Z,13.33
2023-01-18T10:14:29.465Z,14.47
2023-01-18T10:17:20.659Z,14.60
2023-01-18T10:20:16.894Z,14.37
2023-01-18T10:23:11.230Z,12.27
2023-01-18T10:26:04.576Z,12.93
2023-01-18T10:28:58.998Z,14.67
2023-01-18T10:31:53.685Z,14.83
2023-01-18T10:34:45.033Z,14.23
2023-01-18T10:37:38.919Z,13.30
2023-01-18T10:40:27.746Z,14.60
2023-01-18T10:43:20.525Z,13.73
2023-01-18T10:46:14.660Z,15.03
2023-01-18T10:49:04.421Z,14.70
2023-01-18T10:51:52.933Z,14.30
2023-01-18T10:54:41.692Z,16.00
2023-01-18T10:57:32.164Z,15.13
2023-01-18T11:00:33.019Z,14.27
2023-01-18T11:03:22.589Z,13.10
2023-01-18T11:06:11.152Z,13.30
2023-01-18T11:08:59.941Z,13.47
2023-01-18T11:12:06.167Z,14.43
2023-01-18T11:14:54.617Z,12.77
2023-01-18T11:17:46.704Z,12.97
2023-01-18T11:20:38.156Z,12.30
2023-01-18T11:23:28.020Z,12.30
2023-01-18T11:26:19.091Z,12.40
2023-01-18T11:29:08.156Z,11.50
2023-01-18T11:31:57.292Z,11.17
2023-01-18T11:34:51.674Z,11.70
2023-01-18T11:37:43.513Z,10.37
2023-01-18T11:40:34.391Z,10.13
2023-01-18T11:43:24.517Z,9.83
2023-01-18T11:46:34.713Z,9.20
2023-01-18T11:49:30.552Z,8.60
2023-01-18T11:52:27.435Z,8.83
2023-01-18T11:55:26.431Z,9.20
2023-01-18T11:58:28.277Z,8.37
2023-01-18T12:01:46.787Z,6.47
2023-01-18T12:04:44.551Z,8.20
2023-01-18T12:07:44.474Z,6.43
2023-01-18T12:10:51.953Z,7.77
2023-01-18T12:13:43.429Z,7.33
2023-01-18T12:16:45.795Z,7.60
2023-01-18T12:19:53.519Z,6.80
2023-01-18T12:23:04.951Z,7.30
2023-01-18T12:26:12.255Z,6.13
2023-01-18T12:29:17.480Z,4.77
2023-01-18T12:32:15.836Z,5.27
2023-01-18T12:35:24.567Z,4.60
2023-01-18T12:38:19.809Z,6.40
2023-01-18T12:41:32.666Z,5.60
2023-01-18T12:44:43.524Z,4.57
2023-01-18T12:47:36.331Z,4.57
2023-01-18T12:50:26.506Z,4.47
2023-01-18T12:53:20.855Z,5.23
2023-01-18T12:56:13.017Z,5.20
2023-01-18T12:59:03.921Z,4.13
2023-01-18T13:01:56.173Z,4.33
2023-01-18T13:04:47.510Z,4.87
2023-01-18T13:07:40.215Z,4.23
2023-01-18T13:10:30.199Z,4.33
2023-01-18T13:13:20.992Z,4.10
2023-01-18T13:16:29.153Z,3.90
2023-01-18T13:19:21.620Z,4.60
2023-01-18T13:22:16.560Z,5.30
2023-01-18T13:25:26.281Z,5.70
2023-01-18T13:28:21.061Z,5.77
2023-01-18T13:31:09.586Z,6.00
2023-01-18T13:33:58.401Z,5.83
2023-01-18T13:36:47.463Z,5.10
2023-01-18T13:39:45.387Z,5.30
2023-01-18T13:42:36.818Z,5.17
2023-01-18T13:45:28.459Z,5.40
2023-01-18T13:48:41.813Z,5.30
2023-01-18T13:51:57.202Z,4.60
2023-01-18T13:55:05.364Z,5.00
2023-01-18T13:57:58.154Z,5.07
2023-01-18T14:00:51.255Z,5.37
2023-01-18T14:03:44.221Z,5.70
2023-01-18T14:06:36.013Z,4.60
2023-01-18T14:09:35.550Z,5.10
2023-01-18T14:12:48.403Z,5.63
2023-01-18T14:15:52.511Z,5.03
2023-01-18T14:18:49.815Z,5.60
2023-01-18T14:21:55.115Z,5.10
2023-01-18T14:24:57.936Z,7.37
2023-01-18T14:27:49.240Z,8.40
2023-01-18T14:30:41.033Z,8.57
2023-01-18T14:33:33.807Z,6.63
2023-01-18T14:36:24.514Z,7.27
2023-01-18T14:39:17.098Z,6.27
2023-01-18T14:42:06.252Z,6.30
2023-01-18T14:44:58.858Z,6.63
2023-01-18T14:47:48.419Z,7.13
2023-01-18T14:50:41.367Z,6.23
2023-01-18T14:53:31.689Z,5.57
2023-01-18T14:56:22.850Z,5.97
2023-01-18T14:59:31.004Z,5.70
2023-01-18T15:02:23.835Z,5.63
2023-01-18T15:05:13.387Z,6.30
2023-01-18T15:08:03.238Z,6.67
2023-01-18T15:10:51.873Z,7.10
2023-01-18T15:13:47.430Z,6.10
2023-01-18T15:16:36.287Z,7.27
2023-01-18T15:19:26.019Z,6.10
2023-01-18T15:22:16.979Z,7.00
2023-01-18T15:25:09.031Z,6.93
2023-01-18T15:28:01.958Z,7.53
2023-01-18T15:30:57.467Z,7.57
2023-01-18T15:33:46.557Z,7.63
2023-01-18T15:36:35.532Z,7.23
2023-01-18T15:39:24.353Z,7.73
2023-01-18T15:42:15.800Z,8.00
2023-01-18T15:45:04.635Z,7.70
2023-01-18T15:47:55.184Z,7.67
2023-01-18T15:50:45.699Z,8.57
2023-01-18T15:53:36.699Z,7.97
2023-01-18T15:56:27.126Z,9.13
2023-01-18T15:59:20.590Z,9.13
2023-01-18T16:02:18.021Z,8.87
2023-01-18T16:05:16.809Z,9.43
2023-01-18T16:08:20.715Z,8.97
2023-01-18T16:11:27.327Z,9.50
2023-01-18T16:14:27.265Z,9.30
2023-01-18T16:17:17.984Z,9.20
2023-01-18T16:20:16.305Z,12.07
2023-01-18T16:23:08.882Z,15.47
2023-01-18T16:26:01.402Z,14.17
2023-01-18T16:28:51.690Z,13.87
2023-01-18T16:31:43.660Z,10.17
2023-01-18T16:34:32.184Z,11.20
2023-01-18T16:37:20.652Z,10.90
2023-01-18T16:40:13.392Z,10.87
2023-01-18T16:43:03.292Z,10.83
2023-01-18T16:45:53.074Z,16.00
2023-01-18T16:48:43.010Z,16.93
2023-01-18T16:51:31.459Z,13.57
2023-01-18T16:54:20.060Z,13.50
2023-01-18T16:57:08.666Z,12.70
2023-01-18T16:59:57.144Z,14.00
2023-01-18T17:02:45.792Z,14.00
2023-01-18T17:05:35.746Z,14.10
2023-01-18T17:08:24.448Z,13.90
2023-01-18T17:11:13.934Z,11.87
2023-01-18T17:14:02.396Z,13.80
2023-01-18T17:16:50.939Z,14.10
2023-01-18T17:19:41.587Z,12.77
2023-01-18T17:22:31.441Z,13.30
2023-01-18T17:25:20.775Z,14.77
2023-01-18T17:28:11.903Z,13.80
2023-01-18T17:31:00.462Z,14.03
2023-01-18T17:33:48.960Z,13.63
2023-01-18T17:36:37.445Z,19.20
2023-01-18T17:39:37.441Z,14.87
2023-01-18T17:42:32.653Z,17.17
2023-01-18T17:45:21.180Z,16.00
2023-01-18T17:48:09.962Z,13.70
2023-01-18T17:50:58.565Z,13.97
2023-01-18T17:53:47.341Z,15.37
2023-01-18T17:56:37.817Z,15.37
2023-01-18T17:59:26.330Z,16.60
2023-01-18T18:02:14.877Z,15.03
2023-01-18T18:05:04.030Z,17.43
2023-01-18T18:07:52.507Z,19.83
2023-01-18T18:10:43.229Z,19.97
2023-01-18T18:13:33.352Z,18.57
2023-01-18T18:16:23.947Z,17.10
2023-01-18T18:19:14.404Z,17.03
2023-01-18T18:22:02.975Z,17.50
2023-01-18T18:24:51.815Z,19.20
2023-01-18T18:27:47.801Z,17.90
2023-01-18T18:30:37.685Z,18.50
2023-01-18T18:33:27.648Z,19.43
2023-01-18T18:36:16.109Z,24.57
2023-01-18T18:39:05.470Z,22.33
2023-01-18T18:41:54.382Z,18.80
2023-01-18T18:44:43.019Z,20.50
2023-01-18T18:47:32.994Z,20.90
2023-01-18T18:50:21.507Z,24.03
2023-01-18T18:53:10.334Z,24.90
2023-01-18T18:55:59.677Z,25.63
2023-01-18T18:58:48.838Z,25.40
2023-01-18T19:01:37.447Z,25.33
2023-01-18T19:04:27.796Z,26.07
2023-01-18T19:07:17.084Z,22.20
2023-01-18T19:10:06.935Z,22.03
2023-01-18T19:12:55.931Z,19.80
2023-01-18T19:15:46.822Z,18.70
2023-01-18T19:18:35.738Z,18.50
2023-01-18T19:21:25.807Z,17.60
2023-01-18T19:24:14.279Z,17.07
2023-01-18T19:27:02.887Z,17.87
2023-01-18T19:29:53.118Z,17.50
2023-01-18T19:32:41.942Z,18.53
2023-01-18T19:35:31.124Z,16.30
2023-01-18T19:38:21.037Z,15.67
2023-01-18T19:41:09.796Z,13.63
2023-01-18T19:43:58.300Z,14.30
2023-01-18T19:46:46.956Z,14.10
2023-01-18T19:49:35.458Z,13.40
2023-01-18T19:52:24.426Z,12.53
2023-01-18T19:55:14.392Z,13.10
2023-01-18T19:58:03.195Z,14.20
2023-01-18T20:00:51.806Z,13.80
2023-01-18T20:03:40.601Z,12.87
2023-01-18T20:06:29.094Z,13.73
2023-01-18T20:09:21.173Z,13.53
2023-01-18T20:12:13.822Z,12.80
2023-01-18T20:15:02.406Z,13.30
2023-01-18T20:17:50.950Z,12.80
2023-01-18T20:20:39.485Z,11.97
2023-01-18T20:23:27.902Z,11.77
2023-01-18T20:26:31.110Z,12.17
2023-01-18T20:29:30.248Z,13.40
2023-01-18T20:32:18.816Z,13.90
2023-01-18T20:35:07.821Z,13.23
2023-01-18T20:37:56.452Z,12.00
2023-01-18T20:40:45.287Z,12.97
2023-01-18T20:43:33.767Z,13.70
2023-01-18T20:46:23.605Z,13.77
2023-01-18T20:49:12.107Z,16.10
2023-01-18T20:52:00.559Z,14.40
2023-01-18T20:54:49.145Z,13.57
2023-01-18T20:57:37.678Z,13.73
2023-01-18T21:00:26.162Z,15.63
2023-01-18T21:03:17.868Z,16.17
2023-01-18T21:06:06.934Z,15.40
2023-01-18T21:08:57.305Z,15.57
2023-01-18T21:11:45.874Z,15.40
2023-01-18T21:14:34.335Z,14.97
2023-01-18T21:17:22.800Z,13.83
2023-01-18T21:20:13.715Z,12.20
2023-01-18T21:23:02.667Z,13.70
2023-01-18T21:25:51.649Z,14.40
2023-01-18T21:28:40.326Z,13.50
2023-01-18T21:31:28.953Z,13.33
2023-01-18T21:34:17.507Z,13.20
2023-01-18T21:37:07.455Z,13.57
2023-01-18T21:39:58.181Z,12.80
2023-01-18T21:43:04.404Z,13.03
2023-01-18T21:45:56.724Z,12.80
2023-01-18T21:48:45.221Z,13.00
2023-01-18T21:51:51.486Z,13.40
2023-01-18T21:54:41.266Z,12.00
2023-01-18T21:57:29.732Z,13.63
2023-01-18T22:00:18.983Z,13.53
2023-01-18T22:03:09.538Z,13.03
2023-01-18T22:05:58.149Z,14.10
2023-01-18T22:08:46.582Z,13.13
2023-01-18T22:11:36.477Z,15.30
2023-01-18T22:14:25.646Z,13.17
2023-01-18T22:17:14.179Z,13.50
2023-01-18T22:20:05.749Z,12.60
2023-01-18T22:22:55.740Z,13.43
2023-01-18T22:25:44.153Z,15.63
2023-01-18T22:28:34.054Z,12.03
2023-01-18T22:31:22.664Z,12.20
2023-01-18T22:34:18.148Z,12.90
2023-01-18T22:37:06.706Z,12.57
2023-01-18T22:39:55.212Z,10.50
2023-01-18T22:42:44.428Z,11.60
2023-01-18T22:45:34.304Z,11.50
2023-01-18T22:48:22.856Z,12.60
2023-01-18T22:51:14.702Z,11.70
2023-01-18T22:54:03.210Z,13.00
2023-01-18T22:56:51.687Z,12.43
2023-01-18T22:59:40.203Z,13.00
2023-01-18T23:02:30.415Z,12.97
2023-01-18T23:05:19.040Z,14.37
2023-01-18T23:08:08.843Z,12.53
2023-01-18T23:10:57.502Z,15.10
2023-01-18T23:14:08.938Z,13.63
2023-01-18T23:17:14.795Z,12.33
2023-01-18T23:20:05.133Z,13.20
2023-01-18T23:22:53.579Z,12.70
2023-01-18T23:25:42.043Z,12.60
2023-01-18T23:28:42.044Z,12.73
2023-01-18T23:31:30.609Z,11.77
2023-01-18T23:34:19.173Z,12.17
2023-01-18T23:37:09.023Z,11.30
2023-01-18T23:40:15.306Z,13.13
2023-01-18T23:43:21.324Z,13.03
2023-01-18T23:46:27.480Z,11.97
2023-01-18T23:49:33.863Z,11.50
2023-01-18T23:52:41.011Z,10.83
2023-01-18T23:55:29.435Z,11.10
2023-01-18T23:58:17.984Z,11.40
